Time;durP1;ratioP1;P1;durP2;ratioP2;P2;SDS_P1;SDS_P2;PMS_P1;PMS_P2;Temp;Humidity;BMP_temperature;BMP_pressure;BME280_temperature;BME280_humidity;BME280_pressure;Samples;Min_cycle;Max_cycle;Signal;HPM_P1;HPM_P2
2021/09/02 00:00:04;;;;;;;9.68;3.45;;;;;;;;;;5094701;28;20036;-72
2021/09/02 00:02:30;;;;;;;4.45;3.40;;;;;;;;;;5094858;28;20075;-72
2021/09/02 00:04:56;;;;;;;4.13;3.20;;;;;;;;;;5094653;28;20028;-72
2021/09/02 00:07:22;;;;;;;5.78;3.33;;;;;;;;;;5094745;28;20102;-73
2021/09/02 00:09:48;;;;;;;4.35;3.22;;;;;;;;;;5093805;28;20468;-73
2021/09/02 00:12:14;;;;;;;4.43;3.47;;;;;;;;;;5094293;28;20046;-72
2021/09/02 00:14:40;;;;;;;4.15;3.45;;;;;;;;;;5094551;28;20032;-72
2021/09/02 00:17:06;;;;;;;6.15;3.70;;;;;;;;;;5076142;28;20548;-72
2021/09/02 00:19:33;;;;;;;5.72;3.20;;;;;;;;;;5094466;28;20074;-72
2021/09/02 00:21:59;;;;;;;5.53;2.88;;;;;;;;;;5094406;28;20063;-73
2021/09/02 00:24:25;;;;;;;6.45;3.78;;;;;;;;;;5093778;28;20040;-72
2021/09/02 00:26:51;;;;;;;4.68;3.40;;;;;;;;;;5094049;28;20473;-73
2021/09/02 00:29:17;;;;;;;6.47;3.35;;;;;;;;;;5094463;28;20473;-72
2021/09/02 00:31:43;;;;;;;4.10;3.28;;;;;;;;;;5094381;28;20490;-72
2021/09/02 00:34:09;;;;;;;4.88;3.42;;;;;;;;;;5094314;28;20110;-72
2021/09/02 00:36:35;;;;;;;4.65;3.55;;;;;;;;;;5094386;28;20384;-73
2021/09/02 00:39:01;;;;;;;4.22;3.22;;;;;;;;;;5094049;28;20036;-72
2021/09/02 00:41:27;;;;;;;4.95;3.30;;;;;;;;;;5094104;28;20042;-72
2021/09/02 00:43:53;;;;;;;5.45;3.22;;;;;;;;;;5094226;28;20056;-73
2021/09/02 00:46:19;;;;;;;6.50;3.70;;;;;;;;;;5094204;28;20043;-73
2021/09/02 00:48:47;;;;;;;4.30;3.20;;;;;;;;;;5093737;28;20510;-73
2021/09/02 00:51:14;;;;;;;4.50;2.88;;;;;;;;;;5093483;28;20071;-72
2021/09/02 00:53:40;;;;;;;3.53;3.20;;;;;;;;;;5093909;28;20024;-73
2021/09/02 00:56:06;;;;;;;5.03;3.42;;;;;;;;;;5093739;28;20028;-73
2021/09/02 00:58:32;;;;;;;3.40;2.85;;;;;;;;;;5091494;28;20047;-73
2021/09/02 01:00:58;;;;;;;4.30;3.50;;;;;;;;;;5090992;28;20035;-73
2021/09/02 01:03:24;;;;;;;5.72;3.42;;;;;;;;;;5091001;28;20498;-72
2021/09/02 01:05:54;;;;;;;3.45;2.95;;;;;;;;;;5093242;28;20036;-72
2021/09/02 01:08:20;;;;;;;4.57;3.15;;;;;;;;;;5093345;28;20114;-72
2021/09/02 01:10:50;;;;;;;10.68;3.58;;;;;;;;;;5093443;28;20032;-72
2021/09/02 01:13:21;;;;;;;6.22;3.60;;;;;;;;;;5093242;28;20370;-73
2021/09/02 01:15:47;;;;;;;5.93;3.30;;;;;;;;;;5093462;28;20484;-73
2021/09/02 01:18:13;;;;;;;7.00;3.30;;;;;;;;;;5092992;28;20089;-73
2021/09/02 01:20:39;;;;;;;7.93;3.42;;;;;;;;;;5092812;28;20112;-72
2021/09/02 01:23:06;;;;;;;6.20;3.50;;;;;;;;;;5092965;28;20110;-73
2021/09/02 01:25:33;;;;;;;5.28;3.42;;;;;;;;;;5092844;28;20119;-73
2021/09/02 01:28:01;;;;;;;5.60;3.00;;;;;;;;;;5092912;28;20036;-73
2021/09/02 01:30:28;;;;;;;4.57;3.35;;;;;;;;;;5092929;28;20035;-73
2021/09/02 01:32:54;;;;;;;7.35;3.80;;;;;;;;;;5092862;28;20029;-72
2021/09/02 01:35:21;;;;;;;4.75;3.15;;;;;;;;;;5092694;28;20028;-73
2021/09/02 01:37:49;;;;;;;5.43;3.65;;;;;;;;;;5092982;28;20044;-73
2021/09/02 01:40:18;;;;;;;4.55;3.35;;;;;;;;;;5093100;28;20503;-73
2021/09/02 01:42:44;;;;;;;5.30;3.65;;;;;;;;;;5092737;28;20032;-72
2021/09/02 01:45:10;;;;;;;4.30;3.22;;;;;;;;;;5093233;28;20035;-74
2021/09/02 01:47:36;;;;;;;5.45;3.55;;;;;;;;;;5092902;28;20036;-73
2021/09/02 01:50:13;;;;;;;4.57;3.22;;;;;;;;;;5092422;28;20028;-73
2021/09/02 01:52:40;;;;;;;4.50;3.50;;;;;;;;;;5092761;28;20484;-73
2021/09/02 01:55:07;;;;;;;5.22;3.60;;;;;;;;;;5092905;28;20459;-73
2021/09/02 01:57:33;;;;;;;4.65;3.00;;;;;;;;;;5092384;28;20040;-73
2021/09/02 01:59:59;;;;;;;3.40;2.88;;;;;;;;;;5092755;28;20024;-73
2021/09/02 02:02:25;;;;;;;3.80;3.05;;;;;;;;;;5092567;28;20115;-73
2021/09/02 02:04:51;;;;;;;5.30;3.22;;;;;;;;;;5092997;28;20112;-73
2021/09/02 02:07:17;;;;;;;8.88;3.58;;;;;;;;;;5092698;28;20372;-73
2021/09/02 02:09:44;;;;;;;7.63;3.17;;;;;;;;;;5093242;28;20078;-73
2021/09/02 02:12:10;;;;;;;5.80;3.97;;;;;;;;;;5092739;28;20055;-73
2021/09/02 02:14:36;;;;;;;4.78;3.60;;;;;;;;;;5092349;28;20423;-73
2021/09/02 02:17:02;;;;;;;6.13;3.60;;;;;;;;;;5092263;28;20044;-73
2021/09/02 02:19:29;;;;;;;4.75;3.38;;;;;;;;;;5092624;28;20028;-72
2021/09/02 02:21:55;;;;;;;6.38;3.67;;;;;;;;;;5092464;28;20048;-72
2021/09/02 02:24:21;;;;;;;4.55;3.28;;;;;;;;;;5092441;28;20050;-73
2021/09/02 02:26:47;;;;;;;4.53;3.15;;;;;;;;;;5092516;28;20052;-72
2021/09/02 02:29:13;;;;;;;4.72;3.47;;;;;;;;;;5092405;28;20071;-72
2021/09/02 02:31:39;;;;;;;5.18;3.30;;;;;;;;;;5092453;28;20066;-73
2021/09/02 02:34:05;;;;;;;6.43;3.28;;;;;;;;;;5094610;28;20032;-72
2021/09/02 02:36:31;;;;;;;4.80;3.60;;;;;;;;;;5096169;28;20472;-72
2021/09/02 02:38:57;;;;;;;8.32;3.38;;;;;;;;;;5096289;28;20515;-72
2021/09/02 02:41:23;;;;;;;6.15;4.00;;;;;;;;;;5096167;28;20034;-72
2021/09/02 02:43:49;;;;;;;5.45;3.53;;;;;;;;;;5096493;28;20028;-72
2021/09/02 02:46:15;;;;;;;5.00;3.70;;;;;;;;;;5096040;28;20118;-72
2021/09/02 02:48:41;;;;;;;5.70;3.65;;;;;;;;;;5096312;28;20075;-72
2021/09/02 02:51:07;;;;;;;6.18;3.35;;;;;;;;;;5096239;28;20146;-72
2021/09/02 02:53:33;;;;;;;4.78;3.40;;;;;;;;;;5096321;28;20134;-72
2021/09/02 02:55:59;;;;;;;6.85;3.42;;;;;;;;;;5096156;28;20500;-72
2021/09/02 02:58:25;;;;;;;5.57;3.45;;;;;;;;;;5095953;28;20047;-72
2021/09/02 03:00:52;;;;;;;6.95;3.40;;;;;;;;;;5095838;28;20032;-72
2021/09/02 03:03:18;;;;;;;4.95;3.35;;;;;;;;;;5096007;28;20091;-73
2021/09/02 03:05:44;;;;;;;5.07;3.28;;;;;;;;;;5095856;28;20024;-73
2021/09/02 03:08:10;;;;;;;4.68;3.70;;;;;;;;;;5096106;28;20047;-72
2021/09/02 03:10:36;;;;;;;5.57;3.40;;;;;;;;;;5095920;28;20032;-73
2021/09/02 03:13:02;;;;;;;5.38;3.95;;;;;;;;;;5095732;28;20118;-72
2021/09/02 03:15:30;;;;;;;5.40;3.75;;;;;;;;;;5095803;28;20067;-72
2021/09/02 03:17:56;;;;;;;10.00;3.60;;;;;;;;;;5095851;28;20150;-72
2021/09/02 03:20:22;;;;;;;3.80;3.38;;;;;;;;;;5095723;28;20036;-72
2021/09/02 03:22:48;;;;;;;5.80;3.95;;;;;;;;;;5095456;28;20102;-72
2021/09/02 03:25:14;;;;;;;8.85;3.60;;;;;;;;;;5095280;28;20048;-72
2021/09/02 03:27:40;;;;;;;5.53;3.53;;;;;;;;;;5095427;28;20538;-72
2021/09/02 03:30:07;;;;;;;4.22;3.25;;;;;;;;;;5095323;28;20079;-72
2021/09/02 03:32:33;;;;;;;4.38;3.63;;;;;;;;;;5095346;28;20063;-72
2021/09/02 03:34:59;;;;;;;4.95;3.75;;;;;;;;;;5095339;28;20029;-71
2021/09/02 03:37:25;;;;;;;7.22;3.75;;;;;;;;;;5095471;28;20071;-73
2021/09/02 03:39:51;;;;;;;6.22;3.60;;;;;;;;;;5095451;28;20029;-72
2021/09/02 03:42:17;;;;;;;5.50;3.63;;;;;;;;;;5077248;28;20040;-73
2021/09/02 03:44:43;;;;;;;5.38;3.53;;;;;;;;;;5094951;28;20080;-72
2021/09/02 03:47:09;;;;;;;5.88;3.50;;;;;;;;;;5095024;28;20527;-72
2021/09/02 03:49:35;;;;;;;4.07;3.60;;;;;;;;;;5094869;28;20040;-72
2021/09/02 03:52:01;;;;;;;8.50;3.63;;;;;;;;;;5094966;28;20038;-73
2021/09/02 03:54:27;;;;;;;7.00;3.40;;;;;;;;;;5094798;28;20068;-72
2021/09/02 03:56:53;;;;;;;6.15;3.47;;;;;;;;;;5094735;28;20404;-72
2021/09/02 03:59:19;;;;;;;4.57;3.30;;;;;;;;;;5094808;28;20032;-72
2021/09/02 04:01:45;;;;;;;6.40;3.85;;;;;;;;;;5094764;28;20028;-72
2021/09/02 04:04:11;;;;;;;5.20;3.70;;;;;;;;;;5094883;28;20036;-73
2021/09/02 04:06:37;;;;;;;6.65;3.90;;;;;;;;;;5094747;28;20058;-72
2021/09/02 04:09:03;;;;;;;4.75;3.50;;;;;;;;;;5094688;28;20439;-72
2021/09/02 04:11:29;;;;;;;8.23;3.50;;;;;;;;;;5094642;28;20036;-72
2021/09/02 04:13:55;;;;;;;6.30;4.07;;;;;;;;;;5094597;28;20067;-73
2021/09/02 04:16:22;;;;;;;6.75;3.47;;;;;;;;;;5094633;28;20028;-73
2021/09/02 04:18:48;;;;;;;5.35;3.85;;;;;;;;;;5094419;28;20555;-72
2021/09/02 04:21:14;;;;;;;7.72;4.00;;;;;;;;;;5094275;28;20032;-72
2021/09/02 04:23:41;;;;;;;5.72;4.05;;;;;;;;;;5093426;28;20040;-74
2021/09/02 04:26:07;;;;;;;5.93;4.03;;;;;;;;;;5074011;28;20540;-72
2021/09/02 04:28:33;;;;;;;7.80;4.10;;;;;;;;;;5074320;28;20104;-72
2021/09/02 04:30:59;;;;;;;6.40;3.90;;;;;;;;;;5074025;28;20095;-73
2021/09/02 04:33:26;;;;;;;8.95;3.90;;;;;;;;;;5073881;28;20109;-72
2021/09/02 04:35:52;;;;;;;10.55;3.60;;;;;;;;;;5073926;28;20087;-72
2021/09/02 04:38:19;;;;;;;7.03;3.50;;;;;;;;;;5074022;28;20049;-72
2021/09/02 04:40:45;;;;;;;8.88;3.95;;;;;;;;;;5073816;28;20035;-72
2021/09/02 04:43:11;;;;;;;9.65;4.18;;;;;;;;;;5073842;28;20036;-73
2021/09/02 04:45:37;;;;;;;6.45;3.63;;;;;;;;;;5073917;28;20025;-72
2021/09/02 04:48:12;;;;;;;5.38;3.95;;;;;;;;;;5073784;28;20067;-72
2021/09/02 04:50:38;;;;;;;12.27;3.85;;;;;;;;;;5073933;28;20039;-73
2021/09/02 04:53:04;;;;;;;16.85;4.32;;;;;;;;;;5073282;28;20464;-73
2021/09/02 04:55:30;;;;;;;24.60;4.80;;;;;;;;;;5073306;28;20115;-72
2021/09/02 04:57:56;;;;;;;14.48;4.03;;;;;;;;;;5073296;28;20105;-73
2021/09/02 05:00:22;;;;;;;11.82;4.25;;;;;;;;;;5073539;28;20025;-72
2021/09/02 05:02:48;;;;;;;13.38;3.95;;;;;;;;;;5073163;28;20071;-72
2021/09/02 05:05:14;;;;;;;12.25;4.13;;;;;;;;;;5073115;28;20063;-73
2021/09/02 05:07:40;;;;;;;9.65;4.00;;;;;;;;;;5072996;28;20036;-72
2021/09/02 05:10:06;;;;;;;10.55;3.65;;;;;;;;;;5073420;28;20033;-73
2021/09/02 05:12:33;;;;;;;4.45;3.45;;;;;;;;;;5073430;28;20044;-72
2021/09/02 05:14:59;;;;;;;7.93;3.55;;;;;;;;;;5073447;28;20555;-73
2021/09/02 05:17:25;;;;;;;9.88;3.25;;;;;;;;;;5072845;28;20099;-72
2021/09/02 05:19:51;;;;;;;11.55;3.88;;;;;;;;;;5072867;28;20033;-73
2021/09/02 05:22:17;;;;;;;5.35;3.67;;;;;;;;;;5072927;28;20040;-72
2021/09/02 05:24:43;;;;;;;5.00;3.53;;;;;;;;;;5081978;28;20109;-72
2021/09/02 05:27:09;;;;;;;6.63;3.80;;;;;;;;;;5092869;28;20525;-73
2021/09/02 05:29:35;;;;;;;7.03;3.72;;;;;;;;;;5091900;28;20032;-72
2021/09/02 05:32:01;;;;;;;10.15;4.10;;;;;;;;;;5092387;28;20070;-72
2021/09/02 05:34:27;;;;;;;6.53;3.92;;;;;;;;;;5093356;28;20038;-72
2021/09/02 05:36:53;;;;;;;5.35;3.40;;;;;;;;;;5092529;28;20032;-71
2021/09/02 05:39:19;;;;;;;7.45;4.07;;;;;;;;;;5093145;28;20469;-72
2021/09/02 05:41:48;;;;;;;6.97;3.75;;;;;;;;;;5092331;28;20388;-71
2021/09/02 05:44:14;;;;;;;8.20;4.03;;;;;;;;;;5092540;28;20024;-72
2021/09/02 05:46:40;;;;;;;7.40;4.07;;;;;;;;;;5092646;28;20507;-72
2021/09/02 05:49:06;;;;;;;10.60;4.22;;;;;;;;;;5093070;28;20373;-72
2021/09/02 05:51:32;;;;;;;8.80;4.03;;;;;;;;;;5093058;28;20028;-72
2021/09/02 05:53:58;;;;;;;7.10;3.72;;;;;;;;;;5093081;28;20476;-72
2021/09/02 05:56:24;;;;;;;10.57;3.85;;;;;;;;;;5092063;28;20051;-71
2021/09/02 05:58:50;;;;;;;22.52;5.38;;;;;;;;;;5091656;28;20051;-73
2021/09/02 06:01:16;;;;;;;10.27;5.20;;;;;;;;;;5081475;28;20036;-71
2021/09/02 06:03:42;;;;;;;18.60;4.93;;;;;;;;;;5071184;28;20035;-73
2021/09/02 06:06:08;;;;;;;16.85;5.30;;;;;;;;;;5071300;28;20028;-71
2021/09/02 06:08:35;;;;;;;12.15;5.05;;;;;;;;;;5072854;28;20436;-71
2021/09/02 06:11:03;;;;;;;13.93;4.38;;;;;;;;;;5077800;28;20029;-72
2021/09/02 06:13:32;;;;;;;24.30;5.15;;;;;;;;;;5097037;28;20123;-71
2021/09/02 06:15:58;;;;;;;12.45;5.35;;;;;;;;;;5097054;28;20074;-72
2021/09/02 06:18:25;;;;;;;10.40;5.18;;;;;;;;;;5096724;28;20058;-72
2021/09/02 06:20:51;;;;;;;25.50;6.40;;;;;;;;;;5096637;28;20112;-71
2021/09/02 06:23:17;;;;;;;25.92;5.32;;;;;;;;;;5096789;28;20036;-70
2021/09/02 06:25:43;;;;;;;18.83;5.13;;;;;;;;;;5096407;28;20043;-71
2021/09/02 06:28:09;;;;;;;9.82;4.35;;;;;;;;;;5096844;28;20097;-71
2021/09/02 06:30:35;;;;;;;11.13;4.70;;;;;;;;;;5095551;28;20068;-71
2021/09/02 06:33:01;;;;;;;5.57;3.80;;;;;;;;;;5096102;28;20056;-70
2021/09/02 06:35:27;;;;;;;7.47;3.30;;;;;;;;;;5096308;28;20102;-69
2021/09/02 06:37:53;;;;;;;7.65;3.47;;;;;;;;;;5096207;28;20036;-72
2021/09/02 06:40:19;;;;;;;8.35;4.40;;;;;;;;;;5079201;28;20067;-72
2021/09/02 06:42:45;;;;;;;10.35;3.53;;;;;;;;;;5075398;28;20036;-72
2021/09/02 06:45:11;;;;;;;6.80;3.88;;;;;;;;;;5075681;28;20039;-71
2021/09/02 06:47:39;;;;;;;9.27;3.70;;;;;;;;;;5075684;28;20391;-70
2021/09/02 06:50:06;;;;;;;7.95;3.38;;;;;;;;;;5075518;28;20035;-72
2021/09/02 06:52:32;;;;;;;8.60;3.40;;;;;;;;;;5075629;28;20036;-72
2021/09/02 06:54:58;;;;;;;9.73;3.47;;;;;;;;;;5075327;28;20128;-72
2021/09/02 06:57:24;;;;;;;6.82;3.50;;;;;;;;;;5075566;28;20044;-70
2021/09/02 06:59:50;;;;;;;6.43;3.97;;;;;;;;;;5076035;28;20456;-72
2021/09/02 07:02:17;;;;;;;14.68;3.85;;;;;;;;;;5075235;28;20072;-72
2021/09/02 07:04:43;;;;;;;9.50;3.60;;;;;;;;;;5092153;28;20035;-72
2021/09/02 07:07:09;;;;;;;13.68;3.67;;;;;;;;;;5095833;28;20064;-72
2021/09/02 07:09:35;;;;;;;11.70;3.65;;;;;;;;;;5095944;28;20495;-73
2021/09/02 07:12:01;;;;;;;8.48;3.60;;;;;;;;;;5095928;28;20419;-72
2021/09/02 07:14:27;;;;;;;7.72;3.63;;;;;;;;;;5095691;28;20070;-73
2021/09/02 07:16:53;;;;;;;7.65;3.95;;;;;;;;;;5095644;28;20492;-72
2021/09/02 07:19:19;;;;;;;8.18;3.50;;;;;;;;;;5095344;28;20036;-72
2021/09/02 07:21:45;;;;;;;4.45;3.28;;;;;;;;;;5095547;28;20407;-73
2021/09/02 07:24:11;;;;;;;8.30;3.70;;;;;;;;;;5093358;28;20063;-72
2021/09/02 07:26:39;;;;;;;10.32;3.50;;;;;;;;;;5095781;28;20036;-72
2021/09/02 07:29:06;;;;;;;11.13;4.20;;;;;;;;;;5095821;28;20404;-73
2021/09/02 07:31:32;;;;;;;4.93;3.03;;;;;;;;;;5095609;28;20040;-74
2021/09/02 07:33:58;;;;;;;7.10;3.40;;;;;;;;;;5095427;28;20028;-73
2021/09/02 07:36:24;;;;;;;9.38;3.58;;;;;;;;;;5095370;28;20039;-73
2021/09/02 07:38:50;;;;;;;13.20;4.07;;;;;;;;;;5095385;28;20040;-73
2021/09/02 07:41:16;;;;;;;7.18;3.50;;;;;;;;;;5095508;28;20032;-73
2021/09/02 07:43:42;;;;;;;11.52;4.65;;;;;;;;;;5095229;28;20487;-73
2021/09/02 07:46:09;;;;;;;4.57;3.42;;;;;;;;;;5095129;28;20056;-72
2021/09/02 07:48:35;;;;;;;6.80;3.40;;;;;;;;;;5095406;28;20396;-73
2021/09/02 07:51:01;;;;;;;6.88;3.35;;;;;;;;;;5095150;28;20472;-73
2021/09/02 07:53:27;;;;;;;6.47;3.38;;;;;;;;;;5095652;28;20075;-73
2021/09/02 07:55:53;;;;;;;9.00;3.35;;;;;;;;;;5095126;28;20548;-73
2021/09/02 07:58:19;;;;;;;5.82;3.47;;;;;;;;;;5095301;28;20054;-72
2021/09/02 08:00:46;;;;;;;6.00;3.50;;;;;;;;;;5095229;28;20067;-73
2021/09/02 08:03:12;;;;;;;8.70;3.33;;;;;;;;;;5093422;28;20038;-72
2021/09/02 08:05:38;;;;;;;8.63;3.42;;;;;;;;;;5092337;28;20439;-73
2021/09/02 08:08:05;;;;;;;5.75;3.67;;;;;;;;;;5092105;28;20039;-73
2021/09/02 08:10:32;;;;;;;8.57;3.45;;;;;;;;;;5094542;28;20028;-73
2021/09/02 08:12:58;;;;;;;28.95;17.23;;;;;;;;;;5094719;28;20064;-73
2021/09/02 08:15:24;;;;;;;37.03;19.58;;;;;;;;;;5094988;28;20392;-73
2021/09/02 08:17:50;;;;;;;12.90;7.40;;;;;;;;;;5094545;28;20093;-73
2021/09/02 08:20:17;;;;;;;5.80;3.63;;;;;;;;;;5094757;28;20035;-73
2021/09/02 08:22:43;;;;;;;8.18;4.82;;;;;;;;;;5094999;28;20476;-73
2021/09/02 08:25:10;;;;;;;7.35;4.35;;;;;;;;;;5094349;28;20048;-73
2021/09/02 08:27:36;;;;;;;22.35;12.88;;;;;;;;;;5094515;28;20039;-72
2021/09/02 08:30:03;;;;;;;28.10;16.42;;;;;;;;;;5091450;28;20487;-73
2021/09/02 08:32:29;;;;;;;20.20;12.60;;;;;;;;;;5089859;28;20032;-73
2021/09/02 08:34:55;;;;;;;8.30;5.40;;;;;;;;;;5091888;28;20043;-73
2021/09/02 08:37:21;;;;;;;10.90;4.80;;;;;;;;;;5094421;28;20040;-72
2021/09/02 08:39:47;;;;;;;4.15;3.25;;;;;;;;;;5094488;28;20032;-72
2021/09/02 08:42:16;;;;;;;4.68;3.53;;;;;;;;;;5094262;28;20064;-73
2021/09/02 08:44:43;;;;;;;6.97;3.53;;;;;;;;;;5094134;28;20389;-73
2021/09/02 08:47:10;;;;;;;6.63;3.85;;;;;;;;;;5093199;28;20522;-71
2021/09/02 08:49:36;;;;;;;6.55;3.58;;;;;;;;;;5093609;28;20044;-70
2021/09/02 08:52:02;;;;;;;4.90;3.33;;;;;;;;;;5093963;28;20117;-71
2021/09/02 08:54:28;;;;;;;6.07;3.65;;;;;;;;;;5094444;28;20040;-71
2021/09/02 08:56:54;;;;;;;4.72;3.42;;;;;;;;;;5093275;28;20035;-71
2021/09/02 08:59:21;;;;;;;10.38;3.50;;;;;;;;;;5093467;28;20464;-71
2021/09/02 09:01:48;;;;;;;5.18;3.22;;;;;;;;;;5093917;28;20032;-71
2021/09/02 09:04:15;;;;;;;5.40;3.28;;;;;;;;;;5093426;28;20047;-71
2021/09/02 09:06:41;;;;;;;3.72;2.90;;;;;;;;;;5093633;28;20158;-71
2021/09/02 09:09:15;;;;;;;6.75;3.13;;;;;;;;;;5093560;28;20181;-71
2021/09/02 09:11:48;;;;;;;5.63;3.30;;;;;;;;;;5093284;28;20036;-72
2021/09/02 09:14:19;;;;;;;3.75;2.95;;;;;;;;;;5093872;28;20055;-72
2021/09/02 09:16:49;;;;;;;4.97;3.25;;;;;;;;;;5092612;28;20039;-72
2021/09/02 09:19:35;;;;;;;4.47;3.42;;;;;;;;;;5093553;28;20111;-71
2021/09/02 09:22:03;;;;;;;5.07;3.28;;;;;;;;;;5093561;28;20527;-72
2021/09/02 09:24:41;;;;;;;4.20;3.28;;;;;;;;;;5092848;28;20040;-72
2021/09/02 09:27:08;;;;;;;9.18;3.22;;;;;;;;;;5093040;28;20032;-72
2021/09/02 09:29:34;;;;;;;4.03;3.13;;;;;;;;;;5091969;28;20477;-72
2021/09/02 09:32:11;;;;;;;8.13;4.85;;;;;;;;;;5092831;28;20031;-70
2021/09/02 09:34:37;;;;;;;8.85;4.68;;;;;;;;;;5093367;28;20480;-71
2021/09/02 09:37:07;;;;;;;5.85;3.30;;;;;;;;;;5093059;28;20101;-72
2021/09/02 09:39:37;;;;;;;3.78;3.33;;;;;;;;;;5093359;28;20036;-72
2021/09/02 09:42:05;;;;;;;4.93;3.40;;;;;;;;;;5093058;28;20042;-74
2021/09/02 09:44:32;;;;;;;5.75;3.10;;;;;;;;;;5093099;28;20407;-72
2021/09/02 09:47:01;;;;;;;4.88;3.53;;;;;;;;;;5092905;28;20062;-72
2021/09/02 09:49:40;;;;;;;5.03;2.70;;;;;;;;;;5093356;28;20028;-71
2021/09/02 09:52:23;;;;;;;5.93;3.10;;;;;;;;;;5093020;28;20090;-72
2021/09/02 09:54:49;;;;;;;27.20;8.48;;;;;;;;;;5093147;28;20063;-72
2021/09/02 09:57:15;;;;;;;12.55;4.22;;;;;;;;;;5092505;28;20048;-72
2021/09/02 09:59:42;;;;;;;12.73;4.70;;;;;;;;;;5092695;28;20138;-73
2021/09/02 10:02:08;;;;;;;3.85;2.92;;;;;;;;;;5092635;28;20373;-72
2021/09/02 10:04:35;;;;;;;5.40;3.17;;;;;;;;;;5092147;28;20032;-71
2021/09/02 10:07:04;;;;;;;5.68;3.22;;;;;;;;;;5092666;28;20499;-71
2021/09/02 10:09:34;;;;;;;3.50;3.15;;;;;;;;;;5092988;28;20043;-72
2021/09/02 10:12:03;;;;;;;4.32;3.25;;;;;;;;;;5092863;28;20154;-71
2021/09/02 10:14:30;;;;;;;4.75;3.35;;;;;;;;;;5093002;28;20040;-72
2021/09/02 10:16:56;;;;;;;3.88;2.95;;;;;;;;;;5092027;28;20103;-70
2021/09/02 10:19:23;;;;;;;6.22;3.08;;;;;;;;;;5090950;28;20504;-71
2021/09/02 10:21:50;;;;;;;4.80;2.90;;;;;;;;;;5092730;28;20107;-72
2021/09/02 10:24:29;;;;;;;3.88;2.80;;;;;;;;;;5092530;28;20041;-71
2021/09/02 10:26:55;;;;;;;3.58;2.90;;;;;;;;;;5092937;28;20062;-71
2021/09/02 10:29:39;;;;;;;6.13;3.05;;;;;;;;;;5092695;28;20484;-71
2021/09/02 10:32:24;;;;;;;6.43;2.72;;;;;;;;;;5092564;28;20028;-71
2021/09/02 10:34:54;;;;;;;5.15;2.78;;;;;;;;;;5092595;28;20035;-70
2021/09/02 10:37:46;;;;;;;4.13;2.85;;;;;;;;;;5092609;28;20086;-71
2021/09/02 10:40:18;;;;;;;3.60;2.85;;;;;;;;;;5088858;28;20036;-71
2021/09/02 10:42:46;;;;;;;3.97;2.75;;;;;;;;;;5092379;28;20545;-71
2021/09/02 10:45:27;;;;;;;3.72;2.83;;;;;;;;;;5092616;28;20028;-72
2021/09/02 10:47:54;;;;;;;4.28;2.92;;;;;;;;;;5092621;28;20060;-72
2021/09/02 10:50:22;;;;;;;4.05;2.75;;;;;;;;;;5092614;28;20032;-71
2021/09/02 10:52:48;;;;;;;3.00;2.65;;;;;;;;;;5092349;28;20035;-70
2021/09/02 10:55:33;;;;;;;4.25;2.80;;;;;;;;;;5094455;28;20039;-72
2021/09/02 10:58:01;;;;;;;5.32;2.80;;;;;;;;;;5096084;28;20131;-72
2021/09/02 11:00:45;;;;;;;4.88;2.97;;;;;;;;;;5095974;28;20033;-71
2021/09/02 11:03:15;;;;;;;3.53;2.85;;;;;;;;;;5096248;28;20032;-72
2021/09/02 11:05:43;;;;;;;4.13;2.95;;;;;;;;;;5096108;28;20040;-72
2021/09/02 11:08:09;;;;;;;3.92;2.95;;;;;;;;;;5096132;28;20515;-70
2021/09/02 11:10:35;;;;;;;5.88;3.08;;;;;;;;;;5095981;28;20042;-71
2021/09/02 11:13:06;;;;;;;4.47;2.92;;;;;;;;;;5096174;28;20035;-70
2021/09/02 11:15:32;;;;;;;3.70;3.25;;;;;;;;;;5095926;28;20063;-71
2021/09/02 11:17:59;;;;;;;5.30;2.72;;;;;;;;;;5095884;28;20429;-71
2021/09/02 11:20:29;;;;;;;3.80;2.85;;;;;;;;;;5095825;28;20158;-71
2021/09/02 11:23:10;;;;;;;3.63;3.00;;;;;;;;;;5094836;28;20044;-71
2021/09/02 11:25:40;;;;;;;5.13;3.08;;;;;;;;;;5094233;28;20055;-72
2021/09/02 11:28:06;;;;;;;4.97;2.75;;;;;;;;;;5093792;28;20032;-72
2021/09/02 11:30:34;;;;;;;4.78;2.90;;;;;;;;;;5095744;28;20036;-71
2021/09/02 11:33:08;;;;;;;3.28;2.92;;;;;;;;;;5095468;28;20453;-71
2021/09/02 11:35:35;;;;;;;5.05;3.08;;;;;;;;;;5095328;28;20464;-71
2021/09/02 11:38:01;;;;;;;4.95;2.83;;;;;;;;;;5095575;28;20075;-71
2021/09/02 11:40:35;;;;;;;6.30;3.00;;;;;;;;;;5095495;28;20480;-72
2021/09/02 11:43:03;;;;;;;6.32;3.13;;;;;;;;;;5095305;28;20044;-73
2021/09/02 11:45:33;;;;;;;4.47;2.90;;;;;;;;;;5095415;28;20102;-73
2021/09/02 11:48:05;;;;;;;4.40;2.78;;;;;;;;;;5094894;28;20476;-73
2021/09/02 11:50:31;;;;;;;4.68;3.08;;;;;;;;;;5095508;28;20499;-72
2021/09/02 11:52:57;;;;;;;3.83;2.92;;;;;;;;;;5095489;28;20028;-72
2021/09/02 11:55:27;;;;;;;4.57;3.20;;;;;;;;;;5095172;28;20412;-71
2021/09/02 11:58:00;;;;;;;6.03;3.13;;;;;;;;;;5094866;28;20123;-72
2021/09/02 12:00:27;;;;;;;6.25;2.65;;;;;;;;;;5095288;28;20060;-73
2021/09/02 12:02:56;;;;;;;4.55;3.22;;;;;;;;;;5095258;28;20047;-71
2021/09/02 12:05:23;;;;;;;3.78;2.50;;;;;;;;;;5094226;28;20051;-72
2021/09/02 12:07:50;;;;;;;3.53;3.00;;;;;;;;;;5094174;28;20060;-73
2021/09/02 12:10:20;;;;;;;5.85;3.13;;;;;;;;;;5094723;28;20032;-71
2021/09/02 12:12:46;;;;;;;4.70;3.10;;;;;;;;;;5094421;28;20040;-72
2021/09/02 12:15:25;;;;;;;4.85;2.92;;;;;;;;;;5094640;28;20058;-72
2021/09/02 12:18:04;;;;;;;6.80;3.28;;;;;;;;;;5094548;28;20048;-72
2021/09/02 12:20:30;;;;;;;8.13;2.80;;;;;;;;;;5094679;28;20034;-72
2021/09/02 12:22:56;;;;;;;3.67;2.95;;;;;;;;;;5094726;28;20400;-72
2021/09/02 12:25:22;;;;;;;5.93;3.20;;;;;;;;;;5094241;28;20059;-72
2021/09/02 12:27:50;;;;;;;6.45;3.25;;;;;;;;;;5094778;28;20097;-72
2021/09/02 12:30:17;;;;;;;2.92;2.63;;;;;;;;;;5094285;28;20063;-72
2021/09/02 12:32:43;;;;;;;4.93;2.80;;;;;;;;;;5094497;28;20030;-72
2021/09/02 12:35:14;;;;;;;5.40;2.97;;;;;;;;;;5094375;28;20090;-72
2021/09/02 12:37:40;;;;;;;5.57;3.00;;;;;;;;;;5093972;28;20044;-72
2021/09/02 12:40:12;;;;;;;4.18;3.15;;;;;;;;;;5094037;28;20063;-72
2021/09/02 12:42:37;;;;;;;;;;;;;;;;;;5094593;28;20043;-72
2021/09/02 12:45:07;;;;;;;4.32;3.00;;;;;;;;;;5093650;28;19904;-72
2021/09/02 12:47:33;;;;;;;7.57;2.95;;;;;;;;;;5093256;28;20086;-72
2021/09/02 12:49:59;;;;;;;4.88;3.10;;;;;;;;;;5093320;28;20093;-73
2021/09/02 12:52:28;;;;;;;4.30;3.17;;;;;;;;;;5092364;28;20560;-71
2021/09/02 12:55:13;;;;;;;5.70;3.20;;;;;;;;;;5093699;28;20051;-72
2021/09/02 12:57:41;;;;;;;7.95;3.10;;;;;;;;;;5094108;28;20105;-73
2021/09/02 13:00:08;;;;;;;5.45;3.05;;;;;;;;;;5093476;28;20028;-73
2021/09/02 13:02:34;;;;;;;6.05;2.97;;;;;;;;;;5093178;28;20449;-73
2021/09/02 13:05:00;;;;;;;7.53;3.20;;;;;;;;;;5093451;28;20032;-72
2021/09/02 13:07:27;;;;;;;4.97;3.35;;;;;;;;;;5091577;28;20032;-73
2021/09/02 13:09:55;;;;;;;4.75;3.22;;;;;;;;;;5093150;28;20571;-72
2021/09/02 13:12:21;;;;;;;4.10;3.03;;;;;;;;;;5093179;28;20040;-72
2021/09/02 13:14:47;;;;;;;6.05;3.10;;;;;;;;;;5092511;28;20438;-72
2021/09/02 13:17:13;;;;;;;8.27;3.05;;;;;;;;;;5092633;28;20035;-71
2021/09/02 13:19:39;;;;;;;7.68;3.30;;;;;;;;;;5093288;28;20060;-72
2021/09/02 13:22:05;;;;;;;6.70;3.00;;;;;;;;;;5093354;28;20035;-70
2021/09/02 13:24:31;;;;;;;3.40;3.08;;;;;;;;;;5093346;28;20456;-70
2021/09/02 13:26:58;;;;;;;6.25;3.13;;;;;;;;;;5093339;28;20473;-71
2021/09/02 13:29:24;;;;;;;6.53;3.15;;;;;;;;;;5093321;28;20024;-72
2021/09/02 13:31:50;;;;;;;7.72;3.30;;;;;;;;;;5093278;28;20043;-71
2021/09/02 13:34:16;;;;;;;5.63;3.05;;;;;;;;;;5092705;28;20036;-72
2021/09/02 13:36:42;;;;;;;4.80;3.10;;;;;;;;;;5091411;28;20089;-71
2021/09/02 13:39:08;;;;;;;4.63;3.00;;;;;;;;;;5091422;28;20028;-71
2021/09/02 13:41:34;;;;;;;8.05;3.13;;;;;;;;;;5092979;28;20028;-71
2021/09/02 13:44:01;;;;;;;5.28;2.75;;;;;;;;;;5091974;28;20032;-70
2021/09/02 13:46:27;;;;;;;7.15;2.70;;;;;;;;;;5092857;28;20469;-70
2021/09/02 13:48:53;;;;;;;3.80;3.00;;;;;;;;;;5093700;28;20039;-70
2021/09/02 13:51:19;;;;;;;4.55;3.00;;;;;;;;;;5093180;28;20028;-70
2021/09/02 13:53:46;;;;;;;7.38;2.78;;;;;;;;;;5093245;28;20067;-71
2021/09/02 13:56:12;;;;;;;4.60;2.83;;;;;;;;;;5093069;28;20572;-70
2021/09/02 13:58:38;;;;;;;7.10;3.10;;;;;;;;;;5093050;28;20148;-71
2021/09/02 14:01:04;;;;;;;11.65;2.88;;;;;;;;;;5092945;28;20036;-69
2021/09/02 14:03:30;;;;;;;6.10;2.60;;;;;;;;;;5093035;28;20039;-70
2021/09/02 14:05:59;;;;;;;3.60;2.95;;;;;;;;;;5092854;28;20052;-71
2021/09/02 14:08:25;;;;;;;5.63;3.08;;;;;;;;;;5092699;28;20059;-70
2021/09/02 14:10:51;;;;;;;6.13;2.97;;;;;;;;;;5092933;28;20082;-71
2021/09/02 14:13:17;;;;;;;5.78;2.90;;;;;;;;;;5092896;28;20036;-70
2021/09/02 14:15:43;;;;;;;5.57;2.85;;;;;;;;;;5092749;28;20032;-72
2021/09/02 14:18:09;;;;;;;3.85;2.95;;;;;;;;;;5092814;28;20075;-71
2021/09/02 14:20:35;;;;;;;3.30;2.88;;;;;;;;;;5092554;28;20082;-70
2021/09/02 14:23:01;;;;;;;5.32;3.20;;;;;;;;;;5092883;28;20039;-70
2021/09/02 14:25:28;;;;;;;5.40;3.00;;;;;;;;;;5092634;28;20056;-70
2021/09/02 14:27:54;;;;;;;5.28;3.00;;;;;;;;;;5093056;28;20119;-71
2021/09/02 14:30:20;;;;;;;3.60;2.88;;;;;;;;;;5095292;28;20028;-71
2021/09/02 14:32:46;;;;;;;7.38;3.00;;;;;;;;;;5096869;28;20059;-71
2021/09/02 14:35:12;;;;;;;6.22;3.10;;;;;;;;;;5096628;28;20047;-71
2021/09/02 14:37:38;;;;;;;6.60;3.17;;;;;;;;;;5096874;28;20044;-71
2021/09/02 14:40:05;;;;;;;3.97;2.72;;;;;;;;;;5096752;28;20032;-70